sensor_id;sensor_type;location;lat;lon;timestamp;pressure;altitude;pressure_sealevel;temperature;humidity
43155;BME280;34212;51.018;13.586;2023-02-03T00:01:33;98482.63;;;3.60;95.99
43155;BME280;34212;51.018;13.586;2023-02-03T00:06:35;98485.25;;;3.60;96.38
43155;BME280;34212;51.018;13.586;2023-02-03T00:11:36;98476.38;;;3.61;96.53
43155;BME280;34212;51.018;13.586;2023-02-03T00:16:38;98480.59;;;3.63;96.83
43155;BME280;34212;51.018;13.586;2023-02-03T00:21:39;98469.31;;;3.61;96.71
43155;BME280;34212;51.018;13.586;2023-02-03T00:26:41;98466.66;;;3.61;97.07
43155;BME280;34212;51.018;13.586;2023-02-03T00:31:43;98476.03;;;3.65;97.21
43155;BME280;34212;51.018;13.586;2023-02-03T00:36:45;98456.94;;;3.73;96.58
43155;BME280;34212;51.018;13.586;2023-02-03T00:41:48;98457.53;;;3.77;96.27
43155;BME280;34212;51.018;13.586;2023-02-03T00:46:50;98440.53;;;3.81;95.90
43155;BME280;34212;51.018;13.586;2023-02-03T00:51:51;98424.22;;;3.87;96.62
43155;BME280;34212;51.018;13.586;2023-02-03T00:56:54;98420.25;;;3.92;96.31
43155;BME280;34212;51.018;13.586;2023-02-03T01:01:55;98409.81;;;3.91;95.75
43155;BME280;34212;51.018;13.586;2023-02-03T01:06:57;98397.81;;;3.87;95.04
43155;BME280;34212;51.018;13.586;2023-02-03T01:12:00;98396.28;;;3.84;95.46
43155;BME280;34212;51.018;13.586;2023-02-03T01:17:01;98381.41;;;3.83;95.19
43155;BME280;34212;51.018;13.586;2023-02-03T01:22:03;98363.06;;;3.82;94.72
43155;BME280;34212;51.018;13.586;2023-02-03T01:27:04;98350.00;;;3.80;95.27
43155;BME280;34212;51.018;13.586;2023-02-03T01:32:06;98323.00;;;3.77;94.59
43155;BME280;34212;51.018;13.586;2023-02-03T01:37:08;98303.84;;;3.75;94.97
43155;BME280;34212;51.018;13.586;2023-02-03T01:42:14;98287.75;;;3.78;94.94
43155;BME280;34212;51.018;13.586;2023-02-03T01:47:26;98291.09;;;3.80;94.86
43155;BME280;34212;51.018;13.586;2023-02-03T01:52:29;98294.44;;;3.82;95.06
43155;BME280;34212;51.018;13.586;2023-02-03T01:57:36;98286.44;;;3.83;95.12
43155;BME280;34212;51.018;13.586;2023-02-03T02:02:41;98265.19;;;3.85;94.98
43155;BME280;34212;51.018;13.586;2023-02-03T02:07:46;98255.34;;;3.87;95.52
43155;BME280;34212;51.018;13.586;2023-02-03T02:12:48;98242.84;;;3.89;95.05
43155;BME280;34212;51.018;13.586;2023-02-03T02:18:01;98218.25;;;3.88;95.44
43155;BME280;34212;51.018;13.586;2023-02-03T02:23:23;98221.03;;;3.87;95.71
43155;BME280;34212;51.018;13.586;2023-02-03T02:34:10;98211.00;;;3.81;96.18
43155;BME280;34212;51.018;13.586;2023-02-03T02:39:45;98189.88;;;3.81;96.70
43155;BME280;34212;51.018;13.586;2023-02-03T02:45:04;98190.47;;;3.84;97.54
43155;BME280;34212;51.018;13.586;2023-02-03T02:50:13;98178.31;;;3.93;98.55
43155;BME280;34212;51.018;13.586;2023-02-03T02:55:23;98172.81;;;4.06;97.88
43155;BME280;34212;51.018;13.586;2023-02-03T03:00:33;98142.19;;;4.14;97.71
43155;BME280;34212;51.018;13.586;2023-02-03T03:05:35;98137.78;;;4.25;98.53
43155;BME280;34212;51.018;13.586;2023-02-03T03:10:39;98122.81;;;4.35;98.26
43155;BME280;34212;51.018;13.586;2023-02-03T03:15:42;98111.44;;;4.44;99.04
43155;BME280;34212;51.018;13.586;2023-02-03T03:20:47;98135.41;;;4.52;98.67
43155;BME280;34212;51.018;13.586;2023-02-03T03:25:57;98110.94;;;4.60;98.87
43155;BME280;34212;51.018;13.586;2023-02-03T03:31:01;98104.28;;;4.66;99.35
43155;BME280;34212;51.018;13.586;2023-02-03T03:46:40;98095.44;;;4.86;99.59
43155;BME280;34212;51.018;13.586;2023-02-03T03:51:55;98099.88;;;4.95;99.82
43155;BME280;34212;51.018;13.586;2023-02-03T03:57:06;98100.03;;;5.03;99.66
43155;BME280;34212;51.018;13.586;2023-02-03T04:02:12;98082.63;;;5.10;99.94
43155;BME280;34212;51.018;13.586;2023-02-03T04:07:14;98067.91;;;5.18;99.66
43155;BME280;34212;51.018;13.586;2023-02-03T04:12:22;98054.13;;;5.24;100.00
43155;BME280;34212;51.018;13.586;2023-02-03T04:17:24;98030.06;;;5.27;99.76
43155;BME280;34212;51.018;13.586;2023-02-03T04:22:26;98026.13;;;5.31;99.80
43155;BME280;34212;51.018;13.586;2023-02-03T04:27:27;98030.88;;;5.37;99.88
43155;BME280;34212;51.018;13.586;2023-02-03T04:32:29;98025.28;;;5.40;99.95
43155;BME280;34212;51.018;13.586;2023-02-03T04:37:31;98042.53;;;5.44;100.00
43155;BME280;34212;51.018;13.586;2023-02-03T04:42:35;98045.88;;;5.46;100.00
43155;BME280;34212;51.018;13.586;2023-02-03T04:47:38;98041.44;;;5.47;99.85
43155;BME280;34212;51.018;13.586;2023-02-03T04:52:39;98036.84;;;5.49;99.57
43155;BME280;34212;51.018;13.586;2023-02-03T04:57:41;98034.75;;;5.52;99.68
43155;BME280;34212;51.018;13.586;2023-02-03T05:02:42;98018.88;;;5.52;99.77
43155;BME280;34212;51.018;13.586;2023-02-03T05:07:44;98030.00;;;5.56;99.62
43155;BME280;34212;51.018;13.586;2023-02-03T05:12:45;98016.59;;;5.57;99.86
43155;BME280;34212;51.018;13.586;2023-02-03T05:17:47;98002.41;;;5.59;99.64
43155;BME280;34212;51.018;13.586;2023-02-03T05:22:48;97982.91;;;5.60;99.32
43155;BME280;34212;51.018;13.586;2023-02-03T05:27:50;97966.75;;;5.63;99.58
43155;BME280;34212;51.018;13.586;2023-02-03T05:32:51;97968.41;;;5.64;100.00
43155;BME280;34212;51.018;13.586;2023-02-03T05:37:53;97955.06;;;5.65;99.69
43155;BME280;34212;51.018;13.586;2023-02-03T05:42:54;97958.53;;;5.66;99.75
43155;BME280;34212;51.018;13.586;2023-02-03T05:47:55;97966.16;;;5.69;99.31
43155;BME280;34212;51.018;13.586;2023-02-03T05:53:01;97953.78;;;5.69;99.66
43155;BME280;34212;51.018;13.586;2023-02-03T05:58:03;97983.41;;;5.73;99.94
43155;BME280;34212;51.018;13.586;2023-02-03T06:03:05;97978.81;;;5.75;99.41
43155;BME280;34212;51.018;13.586;2023-02-03T06:08:07;97970.59;;;5.78;99.83
43155;BME280;34212;51.018;13.586;2023-02-03T06:13:14;97964.47;;;5.77;99.82
43155;BME280;34212;51.018;13.586;2023-02-03T06:18:16;97948.44;;;5.79;99.70
43155;BME280;34212;51.018;13.586;2023-02-03T06:23:18;97948.13;;;5.82;99.65
43155;BME280;34212;51.018;13.586;2023-02-03T06:28:20;97933.78;;;5.85;99.72
43155;BME280;34212;51.018;13.586;2023-02-03T06:33:21;97932.66;;;5.87;99.92
43155;BME280;34212;51.018;13.586;2023-02-03T06:38:23;97943.25;;;5.87;99.66
43155;BME280;34212;51.018;13.586;2023-02-03T06:43:25;97922.91;;;5.88;99.99
43155;BME280;34212;51.018;13.586;2023-02-03T06:48:26;97920.25;;;5.88;99.61
43155;BME280;34212;51.018;13.586;2023-02-03T06:53:28;97909.53;;;5.89;99.70
43155;BME280;34212;51.018;13.586;2023-02-03T06:58:29;97899.25;;;5.86;99.31
43155;BME280;34212;51.018;13.586;2023-02-03T07:03:30;97891.13;;;5.88;99.58
43155;BME280;34212;51.018;13.586;2023-02-03T07:08:32;97875.25;;;5.88;99.89
43155;BME280;34212;51.018;13.586;2023-02-03T07:13:33;97880.44;;;5.89;100.00
43155;BME280;34212;51.018;13.586;2023-02-03T07:18:35;97862.72;;;5.90;99.67
43155;BME280;34212;51.018;13.586;2023-02-03T07:23:48;97864.38;;;5.91;99.74
43155;BME280;34212;51.018;13.586;2023-02-03T07:28:50;97860.75;;;5.92;99.86
43155;BME280;34212;51.018;13.586;2023-02-03T07:33:52;97839.47;;;5.93;99.62
43155;BME280;34212;51.018;13.586;2023-02-03T07:38:54;97842.81;;;5.95;99.59
43155;BME280;34212;51.018;13.586;2023-02-03T07:43:55;97823.28;;;5.96;99.81
43155;BME280;34212;51.018;13.586;2023-02-03T07:48:57;97825.94;;;5.96;99.42
43155;BME280;34212;51.018;13.586;2023-02-03T07:53:58;97822.44;;;5.96;99.73
43155;BME280;34212;51.018;13.586;2023-02-03T07:59:00;97820.94;;;5.93;99.79
43155;BME280;34212;51.018;13.586;2023-02-03T08:04:01;97803.38;;;5.92;99.86
43155;BME280;34212;51.018;13.586;2023-02-03T08:09:05;97802.66;;;5.90;99.68
43155;BME280;34212;51.018;13.586;2023-02-03T08:14:06;97803.66;;;5.89;100.00
43155;BME280;34212;51.018;13.586;2023-02-03T08:19:09;97770.22;;;5.88;100.00
43155;BME280;34212;51.018;13.586;2023-02-03T08:24:10;97793.91;;;5.90;100.00
43155;BME280;34212;51.018;13.586;2023-02-03T08:29:12;97778.03;;;5.90;100.00
43155;BME280;34212;51.018;13.586;2023-02-03T08:34:13;97771.75;;;5.91;100.00
43155;BME280;34212;51.018;13.586;2023-02-03T08:39:15;97784.69;;;5.94;100.00
43155;BME280;34212;51.018;13.586;2023-02-03T08:44:16;97780.22;;;5.94;100.00
43155;BME280;34212;51.018;13.586;2023-02-03T08:49:20;97774.09;;;5.94;100.00
43155;BME280;34212;51.018;13.586;2023-02-03T08:54:22;97763.66;;;5.92;100.00
43155;BME280;34212;51.018;13.586;2023-02-03T08:59:23;97769.81;;;5.93;100.00
43155;BME280;34212;51.018;13.586;2023-02-03T09:04:25;97759.31;;;5.91;100.00
43155;BME280;34212;51.018;13.586;2023-02-03T09:09:26;97752.09;;;5.93;100.00
43155;BME280;34212;51.018;13.586;2023-02-03T09:14:30;97742.34;;;5.94;100.00
43155;BME280;34212;51.018;13.586;2023-02-03T09:19:32;97752.63;;;5.97;100.00
43155;BME280;34212;51.018;13.586;2023-02-03T09:24:36;97723.38;;;5.98;100.00
43155;BME280;34212;51.018;13.586;2023-02-03T09:29:40;97716.91;;;6.01;100.00
43155;BME280;34212;51.018;13.586;2023-02-03T09:34:42;97710.78;;;6.00;100.00
43155;BME280;34212;51.018;13.586;2023-02-03T09:39:43;97698.25;;;6.03;100.00
43155;BME280;34212;51.018;13.586;2023-02-03T09:49:51;97646.97;;;6.04;100.00
43155;BME280;34212;51.018;13.586;2023-02-03T09:55:01;97640.69;;;6.05;100.00
43155;BME280;34212;51.018;13.586;2023-02-03T10:00:15;97629.94;;;6.06;100.00
43155;BME280;34212;51.018;13.586;2023-02-03T10:05:40;97634.09;;;6.09;100.00
43155;BME280;34212;51.018;13.586;2023-02-03T10:11:05;97633.91;;;6.10;100.00
43155;BME280;34212;51.018;13.586;2023-02-03T10:21:46;97615.63;;;6.17;100.00
43155;BME280;34212;51.018;13.586;2023-02-03T10:26:49;97599.56;;;6.18;100.00
43155;BME280;34212;51.018;13.586;2023-02-03T10:31:53;97590.47;;;6.21;100.00
43155;BME280;34212;51.018;13.586;2023-02-03T10:37:21;97597.44;;;6.22;100.00
43155;BME280;34212;51.018;13.586;2023-02-03T10:42:28;97581.53;;;6.22;100.00
43155;BME280;34212;51.018;13.586;2023-02-03T10:47:52;97554.41;;;6.28;100.00
43155;BME280;34212;51.018;13.586;2023-02-03T10:58:26;97548.50;;;6.34;100.00
43155;BME280;34212;51.018;13.586;2023-02-03T11:03:28;97562.25;;;6.38;100.00
43155;BME280;34212;51.018;13.586;2023-02-03T11:08:35;97559.13;;;6.42;100.00
43155;BME280;34212;51.018;13.586;2023-02-03T11:13:36;97544.88;;;6.43;100.00
43155;BME280;34212;51.018;13.586;2023-02-03T11:24:05;97549.53;;;6.50;100.00
43155;BME280;34212;51.018;13.586;2023-02-03T11:29:23;97519.41;;;6.51;100.00
43155;BME280;34212;51.018;13.586;2023-02-03T11:34:36;97516.44;;;6.54;100.00
43155;BME280;34212;51.018;13.586;2023-02-03T11:39:38;97532.31;;;6.54;100.00
43155;BME280;34212;51.018;13.586;2023-02-03T11:44:39;97530.03;;;6.59;100.00
43155;BME280;34212;51.018;13.586;2023-02-03T11:49:59;97518.44;;;6.60;100.00
43155;BME280;34212;51.018;13.586;2023-02-03T12:00:37;97534.69;;;6.65;100.00
43155;BME280;34212;51.018;13.586;2023-02-03T12:16:49;97348.38;;;6.81;100.00
43155;BME280;34212;51.018;13.586;2023-02-03T12:32:36;97453.06;;;6.93;100.00
43155;BME280;34212;51.018;13.586;2023-02-03T12:43:14;97461.69;;;6.95;100.00
43155;BME280;34212;51.018;13.586;2023-02-03T12:48:21;97489.03;;;6.96;100.00
43155;BME280;34212;51.018;13.586;2023-02-03T12:53:38;97488.69;;;6.99;100.00
43155;BME280;34212;51.018;13.586;2023-02-03T12:59:02;97501.28;;;6.97;100.00
43155;BME280;34212;51.018;13.586;2023-02-03T13:04:22;97476.25;;;6.91;100.00
43155;BME280;34212;51.018;13.586;2023-02-03T13:14:41;97484.38;;;6.89;100.00
43155;BME280;34212;51.018;13.586;2023-02-03T13:19:51;97492.66;;;6.86;100.00
43155;BME280;34212;51.018;13.586;2023-02-03T13:25:08;97548.28;;;6.78;100.00
43155;BME280;34212;51.018;13.586;2023-02-03T13:36:06;97560.41;;;6.38;99.16
43155;BME280;34212;51.018;13.586;2023-02-03T13:46:21;97567.84;;;5.74;100.00
43155;BME280;34212;51.018;13.586;2023-02-03T13:51:28;97552.81;;;5.57;100.00
43155;BME280;34212;51.018;13.586;2023-02-03T13:56:34;97563.19;;;5.50;100.00
43155;BME280;34212;51.018;13.586;2023-02-03T14:01:37;97566.44;;;5.44;100.00
43155;BME280;34212;51.018;13.586;2023-02-03T14:11:44;97600.53;;;5.47;100.00
43155;BME280;34212;51.018;13.586;2023-02-03T14:16:50;97635.44;;;5.51;100.00
43155;BME280;34212;51.018;13.586;2023-02-03T14:22:06;97607.84;;;5.53;100.00
43155;BME280;34212;51.018;13.586;2023-02-03T14:27:19;97630.53;;;5.56;100.00
43155;BME280;34212;51.018;13.586;2023-02-03T14:32:21;97634.00;;;5.56;100.00
43155;BME280;34212;51.018;13.586;2023-02-03T14:37:28;97623.09;;;5.60;99.96
43155;BME280;34212;51.018;13.586;2023-02-03T14:53:40;97616.81;;;5.61;98.79
43155;BME280;34212;51.018;13.586;2023-02-03T14:58:49;97638.28;;;5.57;98.64
43155;BME280;34212;51.018;13.586;2023-02-03T15:14:28;97639.28;;;5.56;98.04
43155;BME280;34212;51.018;13.586;2023-02-03T15:19:34;97652.16;;;5.51;97.94
43155;BME280;34212;51.018;13.586;2023-02-03T15:24:38;97677.63;;;5.52;98.25
43155;BME280;34212;51.018;13.586;2023-02-03T15:29:39;97677.31;;;5.55;98.29
43155;BME280;34212;51.018;13.586;2023-02-03T15:34:47;97670.59;;;5.61;97.87
43155;BME280;34212;51.018;13.586;2023-02-03T15:45:31;97691.69;;;5.71;98.10
43155;BME280;34212;51.018;13.586;2023-02-03T15:50:41;97700.28;;;5.73;98.54
43155;BME280;34212;51.018;13.586;2023-02-03T15:55:49;97699.97;;;5.76;98.54
43155;BME280;34212;51.018;13.586;2023-02-03T16:00:53;97705.94;;;5.78;97.74
43155;BME280;34212;51.018;13.586;2023-02-03T16:05:56;97724.34;;;5.79;97.80
43155;BME280;34212;51.018;13.586;2023-02-03T16:10:57;97727.94;;;5.78;97.13
43155;BME280;34212;51.018;13.586;2023-02-03T16:16:15;97735.75;;;5.80;97.16
43155;BME280;34212;51.018;13.586;2023-02-03T16:21:28;97754.41;;;5.78;96.67
43155;BME280;34212;51.018;13.586;2023-02-03T16:26:31;97761.38;;;5.79;96.99
43155;BME280;34212;51.018;13.586;2023-02-03T16:31:40;97754.13;;;5.82;97.14
43155;BME280;34212;51.018;13.586;2023-02-03T16:37:15;97778.63;;;5.84;98.02
43155;BME280;34212;51.018;13.586;2023-02-03T16:42:40;97759.63;;;5.88;97.75
43155;BME280;34212;51.018;13.586;2023-02-03T16:48:00;97755.44;;;5.95;97.86
43155;BME280;34212;51.018;13.586;2023-02-03T16:53:26;97757.09;;;5.96;97.86
43155;BME280;34212;51.018;13.586;2023-02-03T16:58:29;97769.03;;;6.00;97.43
43155;BME280;34212;51.018;13.586;2023-02-03T17:03:33;97783.50;;;6.06;97.19
43155;BME280;34212;51.018;13.586;2023-02-03T17:08:35;97780.72;;;6.08;96.47
43155;BME280;34212;51.018;13.586;2023-02-03T17:13:37;97794.06;;;6.06;96.17
43155;BME280;34212;51.018;13.586;2023-02-03T17:18:39;97797.41;;;6.08;95.31
43155;BME280;34212;51.018;13.586;2023-02-03T17:23:41;97783.50;;;6.06;94.88
43155;BME280;34212;51.018;13.586;2023-02-03T17:28:42;97801.41;;;5.94;94.60
43155;BME280;34212;51.018;13.586;2023-02-03T17:33:45;97818.81;;;5.97;95.03
43155;BME280;34212;51.018;13.586;2023-02-03T17:38:54;97819.94;;;6.12;94.45
43155;BME280;34212;51.018;13.586;2023-02-03T17:44:14;97809.59;;;6.19;94.49
43155;BME280;34212;51.018;13.586;2023-02-03T17:49:34;97839.09;;;6.24;94.12
43155;BME280;34212;51.018;13.586;2023-02-03T17:54:53;97854.69;;;6.27;93.93
43155;BME280;34212;51.018;13.586;2023-02-03T17:59:55;97855.34;;;6.29;93.33
43155;BME280;34212;51.018;13.586;2023-02-03T18:04:56;97874.88;;;6.28;92.77
43155;BME280;34212;51.018;13.586;2023-02-03T18:09:58;97866.94;;;6.28;92.61
43155;BME280;34212;51.018;13.586;2023-02-03T18:14:59;97860.28;;;6.24;92.42
43155;BME280;34212;51.018;13.586;2023-02-03T18:20:01;97895.00;;;6.21;92.10
43155;BME280;34212;51.018;13.586;2023-02-03T18:25:04;97869.53;;;6.20;92.08
43155;BME280;34212;51.018;13.586;2023-02-03T18:30:06;97875.13;;;6.17;91.69
43155;BME280;34212;51.018;13.586;2023-02-03T18:35:11;97894.91;;;6.13;91.43
43155;BME280;34212;51.018;13.586;2023-02-03T18:40:17;97901.91;;;6.14;91.95
43155;BME280;34212;51.018;13.586;2023-02-03T18:45:18;97894.25;;;6.11;91.73
43155;BME280;34212;51.018;13.586;2023-02-03T18:50:20;97889.09;;;6.09;91.90
43155;BME280;34212;51.018;13.586;2023-02-03T18:55:21;97905.28;;;6.06;91.27
43155;BME280;34212;51.018;13.586;2023-02-03T19:00:23;97910.88;;;6.03;90.76
43155;BME280;34212;51.018;13.586;2023-02-03T19:05:24;97907.41;;;6.03;90.37
43155;BME280;34212;51.018;13.586;2023-02-03T19:10:26;97900.44;;;6.01;90.39
43155;BME280;34212;51.018;13.586;2023-02-03T19:15:28;97899.44;;;6.03;90.71
43155;BME280;34212;51.018;13.586;2023-02-03T19:20:30;97905.75;;;6.01;90.22
43155;BME280;34212;51.018;13.586;2023-02-03T19:25:32;97906.69;;;6.00;89.69
43155;BME280;34212;51.018;13.586;2023-02-03T19:30:34;97900.28;;;6.03;88.92
43155;BME280;34212;51.018;13.586;2023-02-03T19:35:36;97912.81;;;6.01;88.78
43155;BME280;34212;51.018;13.586;2023-02-03T19:40:38;97937.81;;;5.98;88.38
43155;BME280;34212;51.018;13.586;2023-02-03T19:45:40;97903.00;;;5.93;88.36
43155;BME280;34212;51.018;13.586;2023-02-03T19:50:41;97899.91;;;5.88;88.07
43155;BME280;34212;51.018;13.586;2023-02-03T19:55:46;97900.13;;;5.77;88.73
43155;BME280;34212;51.018;13.586;2023-02-03T20:00:47;97906.06;;;5.61;88.69
43155;BME280;34212;51.018;13.586;2023-02-03T20:05:49;97903.38;;;5.33;89.43
43155;BME280;34212;51.018;13.586;2023-02-03T20:10:53;97917.06;;;5.09;90.78
43155;BME280;34212;51.018;13.586;2023-02-03T20:15:54;97928.09;;;4.85;92.47
43155;BME280;34212;51.018;13.586;2023-02-03T20:20:56;97936.88;;;4.67;93.61
43155;BME280;34212;51.018;13.586;2023-02-03T20:25:58;97935.22;;;4.56;94.30
43155;BME280;34212;51.018;13.586;2023-02-03T20:31:00;97934.66;;;4.52;94.84
43155;BME280;34212;51.018;13.586;2023-02-03T20:36:02;97910.19;;;4.50;95.06
43155;BME280;34212;51.018;13.586;2023-02-03T20:41:08;97929.66;;;4.49;95.54
43155;BME280;34212;51.018;13.586;2023-02-03T20:46:12;97916.72;;;4.46;96.12
43155;BME280;34212;51.018;13.586;2023-02-03T20:51:15;97937.16;;;4.44;96.19
43155;BME280;34212;51.018;13.586;2023-02-03T20:56:18;97938.25;;;4.42;96.90
43155;BME280;34212;51.018;13.586;2023-02-03T21:01:22;97937.44;;;4.41;97.17
43155;BME280;34212;51.018;13.586;2023-02-03T21:06:23;97935.06;;;4.38;96.96
43155;BME280;34212;51.018;13.586;2023-02-03T21:11:28;97949.38;;;4.35;97.15
43155;BME280;34212;51.018;13.586;2023-02-03T21:16:34;97952.16;;;4.34;97.69
43155;BME280;34212;51.018;13.586;2023-02-03T21:21:38;97935.22;;;4.36;97.79
43155;BME280;34212;51.018;13.586;2023-02-03T21:26:42;97936.03;;;4.37;97.34
43155;BME280;34212;51.018;13.586;2023-02-03T21:31:43;97998.59;;;4.36;97.58
43155;BME280;34212;51.018;13.586;2023-02-03T21:36:45;97945.78;;;4.36;98.08
43155;BME280;34212;51.018;13.586;2023-02-03T21:41:46;97971.03;;;4.39;97.96
43155;BME280;34212;51.018;13.586;2023-02-03T21:46:48;97974.66;;;4.38;98.41
43155;BME280;34212;51.018;13.586;2023-02-03T21:51:49;97970.38;;;4.37;98.63
43155;BME280;34212;51.018;13.586;2023-02-03T21:56:51;97973.00;;;4.37;98.04
43155;BME280;34212;51.018;13.586;2023-02-03T22:01:55;98006.34;;;4.38;98.15
43155;BME280;34212;51.018;13.586;2023-02-03T22:06:58;97995.78;;;4.38;98.61
43155;BME280;34212;51.018;13.586;2023-02-03T22:12:00;98016.91;;;4.38;98.15
43155;BME280;34212;51.018;13.586;2023-02-03T22:17:01;98006.34;;;4.38;98.59
43155;BME280;34212;51.018;13.586;2023-02-03T22:22:03;98024.84;;;4.38;98.42
43155;BME280;34212;51.018;13.586;2023-02-03T22:27:05;98046.94;;;4.37;99.02
43155;BME280;34212;51.018;13.586;2023-02-03T22:32:06;98044.41;;;4.35;98.62
43155;BME280;34212;51.018;13.586;2023-02-03T22:37:08;98042.19;;;4.31;98.39
43155;BME280;34212;51.018;13.586;2023-02-03T22:42:09;98061.91;;;4.27;98.82
43155;BME280;34212;51.018;13.586;2023-02-03T22:47:10;98067.19;;;4.27;99.13
43155;BME280;34212;51.018;13.586;2023-02-03T22:52:12;98070.53;;;4.29;99.21
43155;BME280;34212;51.018;13.586;2023-02-03T22:57:13;98038.56;;;4.32;99.36
43155;BME280;34212;51.018;13.586;2023-02-03T23:02:15;98047.22;;;4.34;99.40
43155;BME280;34212;51.018;13.586;2023-02-03T23:07:17;98072.63;;;4.35;99.58
43155;BME280;34212;51.018;13.586;2023-02-03T23:12:18;98091.13;;;4.35;99.31
43155;BME280;34212;51.018;13.586;2023-02-03T23:17:20;98076.38;;;4.32;99.74
43155;BME280;34212;51.018;13.586;2023-02-03T23:22:21;98083.63;;;4.30;99.37
43155;BME280;34212;51.018;13.586;2023-02-03T23:27:23;98101.22;;;4.30;99.94
43155;BME280;34212;51.018;13.586;2023-02-03T23:32:24;98079.16;;;4.31;99.66
43155;BME280;34212;51.018;13.586;2023-02-03T23:37:26;98080.81;;;4.32;99.88
43155;BME280;34212;51.018;13.586;2023-02-03T23:42:27;98086.00;;;4.33;100.00
43155;BME280;34212;51.018;13.586;2023-02-03T23:47:28;98089.31;;;4.35;99.84
43155;BME280;34212;51.018;13.586;2023-02-03T23:52:30;98111.00;;;4.39;99.61
43155;BME280;34212;51.018;13.586;2023-02-03T23:57:35;98131.19;;;4.40;100.00
